Aérodrome :
LOGIN :

S'inscrire | Disclaimer

   EN    FR    IT 

 










Légende :    VFR   VFR Marginal   IFR   IFR Intensif   IFR Très Intensif
Visi : 
Plafond : 
>= 8 km
>= 3000ft
5 à 8 km
1000 à 3000 ft
1500m à 5 km
500 à 1000 ft
800 à 1500m
200 à 500 ft
< 800m
< 200 ft
Symboles :   Orages  Brouillard  Fortes neiges  Fortes précipitations  Vent > 20 kt
SIGMETs :   Divers  Orages  Givrage  Turbulence  Onde Orograph.  Cendres Volcan.






- Altitude de l'aérodrome : 142 ft
- Code IATA : FLR


LIRQ - Firenze Amerigo Vespucci

DERNIER METAR :
  • 161050Z 33003KT 270V070 9999 SCT040 21/14 Q1018

METARs EXPIRÉS :
  • 161020Z 30006KT 260V330 9999 SCT035 19/13 Q1018
  • 160950Z VRB03KT 9999 SCT035 20/13 Q1018
  • 160920Z VRB02KT 9999 FEW040 20/13 Q1018
  • 160850Z VRB01KT 9999 FEW040 19/13 Q1017
  • 160820Z 09003KT 050V120 9999 FEW040 18/13 Q1017

TAF TAF LIRQ
Valide du 16 à 06h jusqu'au 17 à 06h UTC


160500Z 1606/1706 VRB05KT 9999 SCT040
BECMG 1607/1609 24010KT
BECMG 1615/1617 VRB05KT



MET'MAP, la Météo Aéronautique d'un coup d'oeil ! - Copyright ORBIFLY Décembre 2007 - Disclaimer

ORBIFLY MET'MAP TEAM :

Programmation & Développement : Alexandra Zaïnal
Conception & Développement : Baudouin d'Aumeries
Co-Programmation & Développement : Marc-Olivier Méhu
Soutien technique & logistique : Manuel Goepfert

Contact : metmap@orbifly.com




SOURCES & CREDITS :

   NOAA